sensor_id;sensor_type;location;lat;lon;timestamp;temperature;humidity
19952;DHT22;10137;49.406;19.484;2023-02-15T00:00:10;1.50;99.90
19952;DHT22;10137;49.406;19.484;2023-02-15T00:02:39;1.50;99.90
19952;DHT22;10137;49.406;19.484;2023-02-15T00:05:08;1.40;99.90
19952;DHT22;10137;49.406;19.484;2023-02-15T00:07:37;1.40;99.90
19952;DHT22;10137;49.406;19.484;2023-02-15T00:10:08;1.40;99.90
19952;DHT22;10137;49.406;19.484;2023-02-15T00:12:37;1.40;99.90
19952;DHT22;10137;49.406;19.484;2023-02-15T00:15:06;1.30;99.90
19952;DHT22;10137;49.406;19.484;2023-02-15T00:17:34;1.20;99.90
19952;DHT22;10137;49.406;19.484;2023-02-15T00:20:11;1.10;99.90
19952;DHT22;10137;49.406;19.484;2023-02-15T00:22:41;1.10;99.90
19952;DHT22;10137;49.406;19.484;2023-02-15T00:25:09;1.10;99.90
19952;DHT22;10137;49.406;19.484;2023-02-15T00:27:37;1.10;99.90
19952;DHT22;10137;49.406;19.484;2023-02-15T00:30:10;1.10;99.90
19952;DHT22;10137;49.406;19.484;2023-02-15T00:32:44;1.20;99.90
19952;DHT22;10137;49.406;19.484;2023-02-15T00:35:14;1.20;99.90
19952;DHT22;10137;49.406;19.484;2023-02-15T00:37:44;1.20;99.90
19952;DHT22;10137;49.406;19.484;2023-02-15T00:40:16;1.20;99.90
19952;DHT22;10137;49.406;19.484;2023-02-15T00:42:44;1.30;99.90
19952;DHT22;10137;49.406;19.484;2023-02-15T00:45:12;1.30;99.90
19952;DHT22;10137;49.406;19.484;2023-02-15T00:47:40;1.20;99.90
19952;DHT22;10137;49.406;19.484;2023-02-15T00:50:09;1.20;99.90
19952;DHT22;10137;49.406;19.484;2023-02-15T00:52:39;1.10;99.90
19952;DHT22;10137;49.406;19.484;2023-02-15T00:55:11;1.10;99.90
19952;DHT22;10137;49.406;19.484;2023-02-15T00:57:39;1.10;99.90
19952;DHT22;10137;49.406;19.484;2023-02-15T01:00:08;1.10;99.90
19952;DHT22;10137;49.406;19.484;2023-02-15T01:02:36;1.10;99.90
19952;DHT22;10137;49.406;19.484;2023-02-15T01:05:05;1.10;99.90
19952;DHT22;10137;49.406;19.484;2023-02-15T01:07:35;1.10;99.90
19952;DHT22;10137;49.406;19.484;2023-02-15T01:10:06;0.90;99.90
19952;DHT22;10137;49.406;19.484;2023-02-15T01:12:36;0.80;99.90
19952;DHT22;10137;49.406;19.484;2023-02-15T01:15:04;0.80;99.90
19952;DHT22;10137;49.406;19.484;2023-02-15T01:17:32;0.80;99.90
19952;DHT22;10137;49.406;19.484;2023-02-15T01:20:00;0.90;99.90
19952;DHT22;10137;49.406;19.484;2023-02-15T01:22:31;0.80;99.90
19952;DHT22;10137;49.406;19.484;2023-02-15T01:25:02;0.90;99.90
19952;DHT22;10137;49.406;19.484;2023-02-15T01:27:29;0.90;99.90
19952;DHT22;10137;49.406;19.484;2023-02-15T01:30:00;0.90;99.90
19952;DHT22;10137;49.406;19.484;2023-02-15T01:32:31;0.90;99.90
19952;DHT22;10137;49.406;19.484;2023-02-15T01:35:03;0.90;99.90
19952;DHT22;10137;49.406;19.484;2023-02-15T01:37:34;0.70;99.90
19952;DHT22;10137;49.406;19.484;2023-02-15T01:40:03;0.70;99.90
19952;DHT22;10137;49.406;19.484;2023-02-15T01:42:32;0.70;99.90
19952;DHT22;10137;49.406;19.484;2023-02-15T01:45:04;0.80;99.90
19952;DHT22;10137;49.406;19.484;2023-02-15T01:47:38;0.70;99.90
19952;DHT22;10137;49.406;19.484;2023-02-15T01:50:10;0.70;99.90
19952;DHT22;10137;49.406;19.484;2023-02-15T01:52:42;0.70;99.90
19952;DHT22;10137;49.406;19.484;2023-02-15T01:55:13;0.60;99.90
19952;DHT22;10137;49.406;19.484;2023-02-15T01:57:43;0.70;99.90
19952;DHT22;10137;49.406;19.484;2023-02-15T02:00:15;0.70;99.90
19952;DHT22;10137;49.406;19.484;2023-02-15T02:02:45;0.70;99.90
19952;DHT22;10137;49.406;19.484;2023-02-15T02:05:16;0.60;99.90
19952;DHT22;10137;49.406;19.484;2023-02-15T02:07:46;0.50;99.90
19952;DHT22;10137;49.406;19.484;2023-02-15T02:10:16;0.60;99.90
19952;DHT22;10137;49.406;19.484;2023-02-15T02:12:47;0.60;99.90
19952;DHT22;10137;49.406;19.484;2023-02-15T02:15:18;0.60;99.90
19952;DHT22;10137;49.406;19.484;2023-02-15T02:18:03;0.60;99.90
19952;DHT22;10137;49.406;19.484;2023-02-15T02:23:56;0.40;99.90
19952;DHT22;10137;49.406;19.484;2023-02-15T02:30:06;0.30;99.90
19952;DHT22;10137;49.406;19.484;2023-02-15T02:36:02;0.50;99.90
19952;DHT22;10137;49.406;19.484;2023-02-15T02:38:38;0.30;99.90
19952;DHT22;10137;49.406;19.484;2023-02-15T02:41:17;0.40;99.90
19952;DHT22;10137;49.406;19.484;2023-02-15T02:43:51;0.40;99.90
19952;DHT22;10137;49.406;19.484;2023-02-15T02:46:26;0.30;99.90
19952;DHT22;10137;49.406;19.484;2023-02-15T02:48:57;0.20;99.90
19952;DHT22;10137;49.406;19.484;2023-02-15T02:51:27;0.20;99.90
19952;DHT22;10137;49.406;19.484;2023-02-15T02:53:57;0.10;99.90
19952;DHT22;10137;49.406;19.484;2023-02-15T02:56:30;0.20;99.90
19952;DHT22;10137;49.406;19.484;2023-02-15T02:59:02;0.10;99.90
19952;DHT22;10137;49.406;19.484;2023-02-15T03:01:34;0.00;99.90
19952;DHT22;10137;49.406;19.484;2023-02-15T03:04:06;0.10;99.90
19952;DHT22;10137;49.406;19.484;2023-02-15T03:06:41;0.10;99.90
19952;DHT22;10137;49.406;19.484;2023-02-15T03:09:12;0.10;99.90
19952;DHT22;10137;49.406;19.484;2023-02-15T03:11:48;0.20;99.90
19952;DHT22;10137;49.406;19.484;2023-02-15T03:14:18;0.20;99.90
19952;DHT22;10137;49.406;19.484;2023-02-15T03:16:47;0.20;99.90
19952;DHT22;10137;49.406;19.484;2023-02-15T03:19:20;0.20;99.90
19952;DHT22;10137;49.406;19.484;2023-02-15T03:21:55;0.20;99.90
19952;DHT22;10137;49.406;19.484;2023-02-15T03:24:33;0.10;99.90
19952;DHT22;10137;49.406;19.484;2023-02-15T03:27:05;0.00;99.90
19952;DHT22;10137;49.406;19.484;2023-02-15T03:29:34;0.00;99.90
19952;DHT22;10137;49.406;19.484;2023-02-15T03:32:05;0.00;99.90
19952;DHT22;10137;49.406;19.484;2023-02-15T03:34:34;-0.10;99.90
19952;DHT22;10137;49.406;19.484;2023-02-15T03:37:11;-0.20;99.90
19952;DHT22;10137;49.406;19.484;2023-02-15T03:39:47;-0.10;99.90
19952;DHT22;10137;49.406;19.484;2023-02-15T03:42:22;-0.20;99.90
19952;DHT22;10137;49.406;19.484;2023-02-15T03:44:58;-0.20;99.90
19952;DHT22;10137;49.406;19.484;2023-02-15T03:47:29;-0.20;99.90
19952;DHT22;10137;49.406;19.484;2023-02-15T03:50:01;-0.30;99.90
19952;DHT22;10137;49.406;19.484;2023-02-15T03:52:53;-0.30;99.90
19952;DHT22;10137;49.406;19.484;2023-02-15T03:55:21;-0.30;99.90
19952;DHT22;10137;49.406;19.484;2023-02-15T03:57:50;-0.30;99.90
19952;DHT22;10137;49.406;19.484;2023-02-15T04:00:40;-0.40;99.90
19952;DHT22;10137;49.406;19.484;2023-02-15T04:03:36;-0.40;99.90
19952;DHT22;10137;49.406;19.484;2023-02-15T04:06:06;-0.40;99.90
19952;DHT22;10137;49.406;19.484;2023-02-15T04:08:37;-0.40;99.90
19952;DHT22;10137;49.406;19.484;2023-02-15T04:11:23;-0.40;99.90
19952;DHT22;10137;49.406;19.484;2023-02-15T04:13:53;-0.40;99.90
19952;DHT22;10137;49.406;19.484;2023-02-15T04:16:23;-0.30;99.90
19952;DHT22;10137;49.406;19.484;2023-02-15T04:18:50;-0.40;99.90
19952;DHT22;10137;49.406;19.484;2023-02-15T04:21:36;-0.40;99.90
19952;DHT22;10137;49.406;19.484;2023-02-15T04:24:27;-0.40;99.90
19952;DHT22;10137;49.406;19.484;2023-02-15T04:27:11;-0.40;99.90
19952;DHT22;10137;49.406;19.484;2023-02-15T04:29:45;-0.40;99.90
19952;DHT22;10137;49.406;19.484;2023-02-15T04:32:16;-0.50;99.90
19952;DHT22;10137;49.406;19.484;2023-02-15T04:34:44;-0.50;99.90
19952;DHT22;10137;49.406;19.484;2023-02-15T04:37:13;-0.60;99.90
19952;DHT22;10137;49.406;19.484;2023-02-15T04:39:48;-0.60;99.90
19952;DHT22;10137;49.406;19.484;2023-02-15T04:42:16;-0.40;99.90
19952;DHT22;10137;49.406;19.484;2023-02-15T04:44:45;-0.40;99.90
19952;DHT22;10137;49.406;19.484;2023-02-15T04:47:13;-0.30;99.90
19952;DHT22;10137;49.406;19.484;2023-02-15T04:49:41;-0.40;99.90
19952;DHT22;10137;49.406;19.484;2023-02-15T04:52:10;-0.50;99.90
19952;DHT22;10137;49.406;19.484;2023-02-15T04:54:38;-0.50;99.90
19952;DHT22;10137;49.406;19.484;2023-02-15T04:57:08;-0.60;99.90
19952;DHT22;10137;49.406;19.484;2023-02-15T04:59:36;-0.60;99.90
19952;DHT22;10137;49.406;19.484;2023-02-15T05:02:07;-0.60;99.90
19952;DHT22;10137;49.406;19.484;2023-02-15T05:04:35;-0.60;99.90
19952;DHT22;10137;49.406;19.484;2023-02-15T05:07:03;-0.60;99.90
19952;DHT22;10137;49.406;19.484;2023-02-15T05:09:32;-0.50;99.90
19952;DHT22;10137;49.406;19.484;2023-02-15T05:12:00;-0.40;99.90
19952;DHT22;10137;49.406;19.484;2023-02-15T05:14:30;-0.40;99.90
19952;DHT22;10137;49.406;19.484;2023-02-15T05:16:58;-0.60;99.90
19952;DHT22;10137;49.406;19.484;2023-02-15T05:19:30;-0.50;99.90
19952;DHT22;10137;49.406;19.484;2023-02-15T05:21:58;-0.50;99.90
19952;DHT22;10137;49.406;19.484;2023-02-15T05:24:29;-0.60;99.90
19952;DHT22;10137;49.406;19.484;2023-02-15T05:27:15;-0.60;99.90
19952;DHT22;10137;49.406;19.484;2023-02-15T05:30:02;-0.50;99.90
19952;DHT22;10137;49.406;19.484;2023-02-15T05:32:30;-0.50;99.90
19952;DHT22;10137;49.406;19.484;2023-02-15T05:34:58;-0.60;99.90
19952;DHT22;10137;49.406;19.484;2023-02-15T05:37:26;-0.70;99.90
19952;DHT22;10137;49.406;19.484;2023-02-15T05:39:55;-0.60;99.90
19952;DHT22;10137;49.406;19.484;2023-02-15T05:42:24;-0.50;99.90
19952;DHT22;10137;49.406;19.484;2023-02-15T05:44:52;-0.50;99.90
19952;DHT22;10137;49.406;19.484;2023-02-15T05:47:22;-0.60;99.90
19952;DHT22;10137;49.406;19.484;2023-02-15T05:49:50;-0.60;99.90
19952;DHT22;10137;49.406;19.484;2023-02-15T05:52:20;-0.50;99.90
19952;DHT22;10137;49.406;19.484;2023-02-15T05:54:48;-0.50;99.90
19952;DHT22;10137;49.406;19.484;2023-02-15T05:57:17;-0.50;99.90
19952;DHT22;10137;49.406;19.484;2023-02-15T05:59:46;-0.40;99.90
19952;DHT22;10137;49.406;19.484;2023-02-15T06:02:15;-0.50;99.90
19952;DHT22;10137;49.406;19.484;2023-02-15T06:04:45;-0.50;99.90
19952;DHT22;10137;49.406;19.484;2023-02-15T06:07:13;-0.60;99.90
19952;DHT22;10137;49.406;19.484;2023-02-15T06:09:41;-0.70;99.90
19952;DHT22;10137;49.406;19.484;2023-02-15T06:12:09;-0.70;99.90
19952;DHT22;10137;49.406;19.484;2023-02-15T06:14:37;-0.70;99.90
19952;DHT22;10137;49.406;19.484;2023-02-15T06:17:10;-0.70;99.90
19952;DHT22;10137;49.406;19.484;2023-02-15T06:19:39;-0.70;99.90
19952;DHT22;10137;49.406;19.484;2023-02-15T06:22:10;-0.80;99.90
19952;DHT22;10137;49.406;19.484;2023-02-15T06:24:39;-0.90;99.90
19952;DHT22;10137;49.406;19.484;2023-02-15T06:27:08;-0.90;99.90
19952;DHT22;10137;49.406;19.484;2023-02-15T06:29:35;-0.90;99.90
19952;DHT22;10137;49.406;19.484;2023-02-15T06:32:02;-0.90;99.90
19952;DHT22;10137;49.406;19.484;2023-02-15T06:34:30;-0.90;99.90
19952;DHT22;10137;49.406;19.484;2023-02-15T06:36:59;-0.90;99.90
19952;DHT22;10137;49.406;19.484;2023-02-15T06:39:28;-0.90;99.90
19952;DHT22;10137;49.406;19.484;2023-02-15T06:41:55;-0.90;99.90
19952;DHT22;10137;49.406;19.484;2023-02-15T06:44:23;-0.90;99.90
19952;DHT22;10137;49.406;19.484;2023-02-15T06:46:51;-1.00;99.90
19952;DHT22;10137;49.406;19.484;2023-02-15T06:49:21;-1.00;99.90
19952;DHT22;10137;49.406;19.484;2023-02-15T06:51:50;-1.00;99.90
19952;DHT22;10137;49.406;19.484;2023-02-15T06:54:17;-1.00;99.90
19952;DHT22;10137;49.406;19.484;2023-02-15T06:56:45;-1.00;99.90
19952;DHT22;10137;49.406;19.484;2023-02-15T06:59:12;-0.90;99.90
19952;DHT22;10137;49.406;19.484;2023-02-15T07:01:42;-0.90;99.90
19952;DHT22;10137;49.406;19.484;2023-02-15T07:04:09;-0.90;99.90
19952;DHT22;10137;49.406;19.484;2023-02-15T07:06:37;-1.00;99.90
19952;DHT22;10137;49.406;19.484;2023-02-15T07:09:06;-0.90;99.90
19952;DHT22;10137;49.406;19.484;2023-02-15T07:11:34;-1.00;99.90
19952;DHT22;10137;49.406;19.484;2023-02-15T07:14:21;-1.00;99.90
19952;DHT22;10137;49.406;19.484;2023-02-15T07:16:49;-1.00;99.90
19952;DHT22;10137;49.406;19.484;2023-02-15T07:19:18;-0.90;99.90
19952;DHT22;10137;49.406;19.484;2023-02-15T07:21:46;-0.90;99.90
19952;DHT22;10137;49.406;19.484;2023-02-15T07:24:14;-0.90;99.90
19952;DHT22;10137;49.406;19.484;2023-02-15T07:26:42;-0.90;99.90
19952;DHT22;10137;49.406;19.484;2023-02-15T07:29:10;-1.00;99.90
19952;DHT22;10137;49.406;19.484;2023-02-15T07:31:40;-1.00;99.90
19952;DHT22;10137;49.406;19.484;2023-02-15T07:34:08;-1.00;99.90
19952;DHT22;10137;49.406;19.484;2023-02-15T07:36:35;-1.00;99.90
19952;DHT22;10137;49.406;19.484;2023-02-15T07:39:02;-0.80;99.90
19952;DHT22;10137;49.406;19.484;2023-02-15T07:41:29;-0.80;99.90
19952;DHT22;10137;49.406;19.484;2023-02-15T07:43:56;-0.80;99.90
19952;DHT22;10137;49.406;19.484;2023-02-15T07:46:24;-0.80;99.90
19952;DHT22;10137;49.406;19.484;2023-02-15T07:48:52;-0.80;99.90
19952;DHT22;10137;49.406;19.484;2023-02-15T07:51:19;-0.80;99.90
19952;DHT22;10137;49.406;19.484;2023-02-15T07:53:46;-0.80;99.90
19952;DHT22;10137;49.406;19.484;2023-02-15T07:56:15;-0.80;99.90
19952;DHT22;10137;49.406;19.484;2023-02-15T07:58:45;-0.70;99.90
19952;DHT22;10137;49.406;19.484;2023-02-15T08:01:19;-0.80;99.90
19952;DHT22;10137;49.406;19.484;2023-02-15T08:03:47;-0.80;99.90
19952;DHT22;10137;49.406;19.484;2023-02-15T08:06:16;-0.70;99.90
19952;DHT22;10137;49.406;19.484;2023-02-15T08:08:43;-0.70;99.90
19952;DHT22;10137;49.406;19.484;2023-02-15T08:11:16;-0.70;99.90
19952;DHT22;10137;49.406;19.484;2023-02-15T08:13:56;-0.70;99.90
19952;DHT22;10137;49.406;19.484;2023-02-15T08:16:27;-0.60;99.90
19952;DHT22;10137;49.406;19.484;2023-02-15T08:18:55;-0.60;99.90
19952;DHT22;10137;49.406;19.484;2023-02-15T08:21:25;-0.60;99.90
19952;DHT22;10137;49.406;19.484;2023-02-15T08:23:52;-0.50;99.90
19952;DHT22;10137;49.406;19.484;2023-02-15T08:26:20;-0.50;99.90
19952;DHT22;10137;49.406;19.484;2023-02-15T08:28:47;-0.60;99.90
19952;DHT22;10137;49.406;19.484;2023-02-15T08:31:14;-0.50;99.90
19952;DHT22;10137;49.406;19.484;2023-02-15T08:33:43;-0.50;99.90
19952;DHT22;10137;49.406;19.484;2023-02-15T08:36:13;-0.40;99.90
19952;DHT22;10137;49.406;19.484;2023-02-15T08:38:42;-0.40;99.90
19952;DHT22;10137;49.406;19.484;2023-02-15T08:41:11;-0.30;99.90
19952;DHT22;10137;49.406;19.484;2023-02-15T08:43:38;-0.30;99.90
19952;DHT22;10137;49.406;19.484;2023-02-15T08:46:05;-0.40;99.90
19952;DHT22;10137;49.406;19.484;2023-02-15T08:48:34;-0.30;99.90
19952;DHT22;10137;49.406;19.484;2023-02-15T08:51:06;-0.20;99.90
19952;DHT22;10137;49.406;19.484;2023-02-15T08:53:33;-0.10;99.90
19952;DHT22;10137;49.406;19.484;2023-02-15T08:56:02;-0.10;99.90
19952;DHT22;10137;49.406;19.484;2023-02-15T08:58:29;-0.10;99.90
19952;DHT22;10137;49.406;19.484;2023-02-15T09:00:57;0.10;99.90
19952;DHT22;10137;49.406;19.484;2023-02-15T09:03:24;0.00;99.90
19952;DHT22;10137;49.406;19.484;2023-02-15T09:05:57;0.10;99.90
19952;DHT22;10137;49.406;19.484;2023-02-15T09:08:25;0.20;99.90
19952;DHT22;10137;49.406;19.484;2023-02-15T09:10:54;0.30;99.90
19952;DHT22;10137;49.406;19.484;2023-02-15T09:13:22;0.50;99.90
19952;DHT22;10137;49.406;19.484;2023-02-15T09:15:49;0.60;99.90
19952;DHT22;10137;49.406;19.484;2023-02-15T09:18:16;0.60;99.90
19952;DHT22;10137;49.406;19.484;2023-02-15T09:20:44;0.70;99.90
19952;DHT22;10137;49.406;19.484;2023-02-15T09:23:11;0.90;99.90
19952;DHT22;10137;49.406;19.484;2023-02-15T09:25:39;1.20;99.90
19952;DHT22;10137;49.406;19.484;2023-02-15T09:28:08;1.40;99.90
19952;DHT22;10137;49.406;19.484;2023-02-15T09:30:36;1.70;99.90
19952;DHT22;10137;49.406;19.484;2023-02-15T09:33:03;1.90;99.90
19952;DHT22;10137;49.406;19.484;2023-02-15T09:35:30;2.30;99.90
19952;DHT22;10137;49.406;19.484;2023-02-15T09:37:57;2.60;99.90
19952;DHT22;10137;49.406;19.484;2023-02-15T09:40:24;2.90;99.90
19952;DHT22;10137;49.406;19.484;2023-02-15T09:43:08;3.20;99.90
19952;DHT22;10137;49.406;19.484;2023-02-15T09:45:58;3.40;99.90
19952;DHT22;10137;49.406;19.484;2023-02-15T09:48:39;3.90;99.90
19952;DHT22;10137;49.406;19.484;2023-02-15T09:51:27;4.20;99.90
19952;DHT22;10137;49.406;19.484;2023-02-15T09:54:10;4.50;99.90
19952;DHT22;10137;49.406;19.484;2023-02-15T09:56:43;4.90;99.90
19952;DHT22;10137;49.406;19.484;2023-02-15T09:59:19;5.40;99.90
19952;DHT22;10137;49.406;19.484;2023-02-15T10:01:59;5.80;99.90
19952;DHT22;10137;49.406;19.484;2023-02-15T10:04:49;6.30;99.90
19952;DHT22;10137;49.406;19.484;2023-02-15T10:07:30;6.60;99.90
19952;DHT22;10137;49.406;19.484;2023-02-15T10:10:14;7.00;99.90
19952;DHT22;10137;49.406;19.484;2023-02-15T10:12:57;7.30;99.90
19952;DHT22;10137;49.406;19.484;2023-02-15T10:15:40;7.70;99.90
19952;DHT22;10137;49.406;19.484;2023-02-15T10:18:30;7.90;99.90
19952;DHT22;10137;49.406;19.484;2023-02-15T10:21:07;8.30;99.90
19952;DHT22;10137;49.406;19.484;2023-02-15T10:23:58;8.60;99.90
19952;DHT22;10137;49.406;19.484;2023-02-15T10:26:35;8.80;99.90
19952;DHT22;10137;49.406;19.484;2023-02-15T10:29:09;9.10;99.90
19952;DHT22;10137;49.406;19.484;2023-02-15T10:31:48;9.30;99.90
19952;DHT22;10137;49.406;19.484;2023-02-15T10:34:22;9.50;99.80
19952;DHT22;10137;49.406;19.484;2023-02-15T10:39:48;9.90;99.60
19952;DHT22;10137;49.406;19.484;2023-02-15T10:42:27;10.60;99.90
19952;DHT22;10137;49.406;19.484;2023-02-15T10:45:08;11.10;98.10
19952;DHT22;10137;49.406;19.484;2023-02-15T10:47:57;11.80;97.60
19952;DHT22;10137;49.406;19.484;2023-02-15T10:50:46;12.30;95.30
19952;DHT22;10137;49.406;19.484;2023-02-15T10:53:45;12.40;91.20
19952;DHT22;10137;49.406;19.484;2023-02-15T10:56:20;12.70;88.90
19952;DHT22;10137;49.406;19.484;2023-02-15T10:59:03;13.00;90.60
19952;DHT22;10137;49.406;19.484;2023-02-15T11:01:36;13.40;87.30
19952;DHT22;10137;49.406;19.484;2023-02-15T11:04:51;13.30;82.20
19952;DHT22;10137;49.406;19.484;2023-02-15T11:07:25;13.30;83.80
19952;DHT22;10137;49.406;19.484;2023-02-15T11:10:01;13.30;79.90
19952;DHT22;10137;49.406;19.484;2023-02-15T11:12:35;13.60;80.70
19952;DHT22;10137;49.406;19.484;2023-02-15T11:15:13;13.80;79.30
19952;DHT22;10137;49.406;19.484;2023-02-15T11:17:46;14.20;77.60
19952;DHT22;10137;49.406;19.484;2023-02-15T11:20:21;14.40;76.50
19952;DHT22;10137;49.406;19.484;2023-02-15T11:22:53;14.00;74.30
19952;DHT22;10137;49.406;19.484;2023-02-15T11:25:25;14.30;75.00
19952;DHT22;10137;49.406;19.484;2023-02-15T11:27:55;14.00;73.70
19952;DHT22;10137;49.406;19.484;2023-02-15T11:30:24;14.40;74.30
19952;DHT22;10137;49.406;19.484;2023-02-15T11:32:54;14.50;71.60
19952;DHT22;10137;49.406;19.484;2023-02-15T11:35:27;14.10;71.00
19952;DHT22;10137;49.406;19.484;2023-02-15T11:38:02;13.80;71.00
19952;DHT22;10137;49.406;19.484;2023-02-15T11:40:34;13.40;71.90
19952;DHT22;10137;49.406;19.484;2023-02-15T11:43:06;12.80;71.40
19952;DHT22;10137;49.406;19.484;2023-02-15T11:45:35;12.40;74.30
19952;DHT22;10137;49.406;19.484;2023-02-15T11:48:10;12.10;74.80
19952;DHT22;10137;49.406;19.484;2023-02-15T11:50:42;11.90;75.00
19952;DHT22;10137;49.406;19.484;2023-02-15T11:53:15;11.80;76.80
19952;DHT22;10137;49.406;19.484;2023-02-15T11:55:45;11.80;78.80
19952;DHT22;10137;49.406;19.484;2023-02-15T11:58:24;11.70;77.00
19952;DHT22;10137;49.406;19.484;2023-02-15T12:00:58;11.60;77.10
19952;DHT22;10137;49.406;19.484;2023-02-15T12:03:33;11.40;77.80
19952;DHT22;10137;49.406;19.484;2023-02-15T12:06:05;11.20;77.80
19952;DHT22;10137;49.406;19.484;2023-02-15T12:08:38;11.10;78.80
19952;DHT22;10137;49.406;19.484;2023-02-15T12:11:08;10.90;79.50
19952;DHT22;10137;49.406;19.484;2023-02-15T12:13:57;10.80;80.90
19952;DHT22;10137;49.406;19.484;2023-02-15T12:16:25;10.60;81.40
19952;DHT22;10137;49.406;19.484;2023-02-15T12:18:55;10.00;82.00
19952;DHT22;10137;49.406;19.484;2023-02-15T12:21:29;9.80;84.20
19952;DHT22;10137;49.406;19.484;2023-02-15T12:24:03;9.50;85.30
19952;DHT22;10137;49.406;19.484;2023-02-15T12:26:32;9.40;85.90
19952;DHT22;10137;49.406;19.484;2023-02-15T12:29:07;9.20;88.10
19952;DHT22;10137;49.406;19.484;2023-02-15T12:31:41;9.00;88.80
19952;DHT22;10137;49.406;19.484;2023-02-15T12:34:17;8.80;90.20
19952;DHT22;10137;49.406;19.484;2023-02-15T12:36:47;8.70;90.10
19952;DHT22;10137;49.406;19.484;2023-02-15T12:39:20;8.70;91.50
19952;DHT22;10137;49.406;19.484;2023-02-15T12:42:04;8.80;92.50
19952;DHT22;10137;49.406;19.484;2023-02-15T12:44:32;8.80;92.40
19952;DHT22;10137;49.406;19.484;2023-02-15T12:47:02;8.60;92.20
19952;DHT22;10137;49.406;19.484;2023-02-15T12:49:30;8.50;92.10
19952;DHT22;10137;49.406;19.484;2023-02-15T12:51:59;8.30;93.10
19952;DHT22;10137;49.406;19.484;2023-02-15T12:54:37;8.10;93.40
19952;DHT22;10137;49.406;19.484;2023-02-15T12:57:30;7.90;93.90
19952;DHT22;10137;49.406;19.484;2023-02-15T12:59:58;7.60;95.10
19952;DHT22;10137;49.406;19.484;2023-02-15T13:02:29;7.50;96.20
19952;DHT22;10137;49.406;19.484;2023-02-15T13:05:05;7.40;96.70
19952;DHT22;10137;49.406;19.484;2023-02-15T13:07:34;7.40;98.30
19952;DHT22;10137;49.406;19.484;2023-02-15T13:10:03;7.20;99.30
19952;DHT22;10137;49.406;19.484;2023-02-15T13:12:31;7.10;99.90
19952;DHT22;10137;49.406;19.484;2023-02-15T13:15:00;7.10;99.90
19952;DHT22;10137;49.406;19.484;2023-02-15T13:17:30;7.00;99.90
19952;DHT22;10137;49.406;19.484;2023-02-15T13:20:05;6.90;99.90
19952;DHT22;10137;49.406;19.484;2023-02-15T13:22:39;6.80;99.90
19952;DHT22;10137;49.406;19.484;2023-02-15T13:25:17;6.80;99.90
19952;DHT22;10137;49.406;19.484;2023-02-15T13:27:48;6.70;99.90
19952;DHT22;10137;49.406;19.484;2023-02-15T13:30:23;6.80;99.90
19952;DHT22;10137;49.406;19.484;2023-02-15T13:33:02;7.00;99.90
19952;DHT22;10137;49.406;19.484;2023-02-15T13:35:36;7.20;99.90
19952;DHT22;10137;49.406;19.484;2023-02-15T13:38:15;7.30;99.90
19952;DHT22;10137;49.406;19.484;2023-02-15T13:40:48;7.50;99.90
19952;DHT22;10137;49.406;19.484;2023-02-15T13:43:38;7.50;99.70
19952;DHT22;10137;49.406;19.484;2023-02-15T13:46:20;7.60;98.00
19952;DHT22;10137;49.406;19.484;2023-02-15T13:49:02;7.70;97.90
19952;DHT22;10137;49.406;19.484;2023-02-15T13:51:38;7.70;96.10
19952;DHT22;10137;49.406;19.484;2023-02-15T13:54:43;7.70;96.10
19952;DHT22;10137;49.406;19.484;2023-02-15T13:57:38;7.60;95.20
19952;DHT22;10137;49.406;19.484;2023-02-15T14:00:17;7.60;95.10
19952;DHT22;10137;49.406;19.484;2023-02-15T14:06:20;7.70;95.40
19952;DHT22;10137;49.406;19.484;2023-02-15T14:09:06;7.70;95.50
19952;DHT22;10137;49.406;19.484;2023-02-15T14:11:47;7.70;94.60
19952;DHT22;10137;49.406;19.484;2023-02-15T14:14:32;7.60;93.40
19952;DHT22;10137;49.406;19.484;2023-02-15T14:17:14;7.70;93.80
19952;DHT22;10137;49.406;19.484;2023-02-15T14:19:45;7.60;93.90
19952;DHT22;10137;49.406;19.484;2023-02-15T14:22:23;7.70;93.80
19952;DHT22;10137;49.406;19.484;2023-02-15T14:25:16;7.70;94.00
19952;DHT22;10137;49.406;19.484;2023-02-15T14:27:54;7.70;93.60
19952;DHT22;10137;49.406;19.484;2023-02-15T14:30:28;7.70;93.40
19952;DHT22;10137;49.406;19.484;2023-02-15T14:32:59;7.70;93.00
19952;DHT22;10137;49.406;19.484;2023-02-15T14:35:29;7.60;93.00
19952;DHT22;10137;49.406;19.484;2023-02-15T14:38:04;7.60;92.90
19952;DHT22;10137;49.406;19.484;2023-02-15T14:40:39;7.60;93.30
19952;DHT22;10137;49.406;19.484;2023-02-15T14:43:33;7.50;92.60
19952;DHT22;10137;49.406;19.484;2023-02-15T14:46:20;7.50;92.30
19952;DHT22;10137;49.406;19.484;2023-02-15T14:48:55;7.50;93.20
19952;DHT22;10137;49.406;19.484;2023-02-15T14:52:03;7.50;93.20
19952;DHT22;10137;49.406;19.484;2023-02-15T14:55:00;7.40;93.10
19952;DHT22;10137;49.406;19.484;2023-02-15T14:57:57;7.40;93.40
19952;DHT22;10137;49.406;19.484;2023-02-15T15:00:36;7.40;93.50
19952;DHT22;10137;49.406;19.484;2023-02-15T15:03:24;7.40;93.60
19952;DHT22;10137;49.406;19.484;2023-02-15T15:05:56;7.40;94.40
19952;DHT22;10137;49.406;19.484;2023-02-15T15:08:34;7.30;94.80
19952;DHT22;10137;49.406;19.484;2023-02-15T15:11:44;7.30;94.50
19952;DHT22;10137;49.406;19.484;2023-02-15T15:14:41;7.20;94.90
19952;DHT22;10137;49.406;19.484;2023-02-15T15:20:48;7.10;94.50
19952;DHT22;10137;49.406;19.484;2023-02-15T15:23:39;7.10;94.80
19952;DHT22;10137;49.406;19.484;2023-02-15T15:26:26;7.10;95.50
19952;DHT22;10137;49.406;19.484;2023-02-15T15:28:59;7.00;95.30
19952;DHT22;10137;49.406;19.484;2023-02-15T15:31:47;7.00;95.70
19952;DHT22;10137;49.406;19.484;2023-02-15T15:34:51;6.90;95.70
19952;DHT22;10137;49.406;19.484;2023-02-15T15:40:58;6.80;95.90
19952;DHT22;10137;49.406;19.484;2023-02-15T15:50:00;6.50;96.20
19952;DHT22;10137;49.406;19.484;2023-02-15T15:52:29;6.50;96.10
19952;DHT22;10137;49.406;19.484;2023-02-15T15:55:16;6.40;96.30
19952;DHT22;10137;49.406;19.484;2023-02-15T15:57:47;6.40;96.80
19952;DHT22;10137;49.406;19.484;2023-02-15T16:00:34;6.40;97.20
19952;DHT22;10137;49.406;19.484;2023-02-15T16:03:04;6.20;97.10
19952;DHT22;10137;49.406;19.484;2023-02-15T16:05:37;5.80;99.50
19952;DHT22;10137;49.406;19.484;2023-02-15T16:08:06;5.60;99.90
19952;DHT22;10137;49.406;19.484;2023-02-15T16:10:35;5.40;99.90
19952;DHT22;10137;49.406;19.484;2023-02-15T16:13:05;5.30;99.90
19952;DHT22;10137;49.406;19.484;2023-02-15T16:15:43;4.90;99.90
19952;DHT22;10137;49.406;19.484;2023-02-15T16:18:16;4.50;99.90
19952;DHT22;10137;49.406;19.484;2023-02-15T16:20:50;4.30;99.90
19952;DHT22;10137;49.406;19.484;2023-02-15T16:23:41;4.40;99.90
19952;DHT22;10137;49.406;19.484;2023-02-15T16:26:32;4.60;99.90
19952;DHT22;10137;49.406;19.484;2023-02-15T16:29:14;4.70;99.90
19952;DHT22;10137;49.406;19.484;2023-02-15T16:31:42;4.70;99.90
19952;DHT22;10137;49.406;19.484;2023-02-15T16:34:16;4.60;99.90